Snyder, Nebraska
Current Conditions -  °F | °C
As of 6:15 AM on Thursday 29 Jan 2015 (Local Time) from KFET Reporting Station
Overcast Overcast  
Wind Chill: 26°   Ceiling: 3400
Heat Index: 37°   Visibility: 10mi
Dew Point: 29°   Wind: 22mph
Humidity: 74%   Direction: 310°NW
Pressure: 30.23"   Gusts: 26mph
Location:  41.7°N, 96.79°W
Report Text: KFET 291215Z AUTO 31019G23KT 10SM SCT022 OVC034 03/M01 A3023 RMK AO2 T00271015
Loading
Personal Weather Stations






























Interactive Weather Map New forecast layout! Learn more

10-Day Weather Forecast

Advertisements
Track Severe Weather on mobile